Terminal Aerodrome Forecast
Issued by NWS

Home | Current Version | Previous Version | Text Only | Print | Product List | Glossary On
Versions: 1 2 3 4 5 6 7 8 9 10 11 12 13 14
000
FTUS45 KRIW 240526
TAFPNA
TAF
KPNA 240526Z 2406/2506 32007KT P6SM SCT070
     FM241400 13006KT P6SM VCSH SCT035 BKN060
     FM241600 VRB06KT 6SM -SHRA SCT015 BKN025 OVC035
     FM250000 30013G21KT P6SM VCSH SCT030 BKN050
     FM250400 31008KT P6SM SCT050 BKN080
      AMD LTD TO CLD VIS AND WIND=

USA.gov is the U.S. government's official web portal to all federal, state and local government web resources and services.